FW9764 Weather Reports


Display with metric or nautical units.
time (UTC)temp
F
wind
direction
speed
MPH
gust
MPH
rain 1hr
in
rain 24hr
in
rain mn
in
humidity
%
barometer
mb
20230201123523 18 239 7.0 11.0 0.00 0.00 0.00 78 1013.9
20230201123002 18 231 7.0 9.0 0.00 0.00 0.00 79 1013.8
20230201122502 18 228 7.0 9.0 0.00 0.00 0.00 78 1013.8
20230201122025 18 227 7.0 10.0 0.00 0.00 0.00 77 1013.8
20230201121502 19 230 7.0 10.0 0.00 0.00 0.00 77 1013.8
20230201121002 19 228 7.0 10.0 0.00 0.00 0.00 77 1013.7
20230201120502 19 221 7.0 9.0 0.00 0.00 0.00 77 1013.6
20230201120002 19 220 7.0 9.0 0.00 0.00 0.00 77 1013.7
20230201115502 20 229 5.0 9.0 0.00 0.00 0.00 76 1013.8
20230201115002 20 242 4.0 9.0 0.00 0.00 0.00 74 1013.8
20230201114523 21 243 6.0 10.0 0.00 0.00 0.00 74 1013.8
20230201114002 22 237 7.0 10.0 0.00 0.00 0.00 74 1013.8
20230201113502 22 233 7.0 11.0 0.00 0.00 0.00 74 1013.6
20230201113002 22 230 8.0 12.0 0.00 0.00 0.00 75 1013.6
20230201112502 22 228 9.0 13.0 0.00 0.00 0.00 75 1013.7
20230201112002 23 227 10.0 14.0 0.00 0.00 0.00 74 1013.5
20230201111502 23 227 10.0 14.0 0.00 0.00 0.00 73 1013.5
20230201111002 22 228 10.0 14.0 0.00 0.00 0.00 74 1013.4
20230201110502 22 228 9.0 15.0 0.00 0.00 0.00 74 1013.3
20230201110002 22 228 10.0 15.0 0.00 0.00 0.00 74 1013.3
20230201105523 22 230 10.0 14.0 0.00 0.00 0.00 74 1013.2
20230201105002 22 231 10.0 13.0 0.00 0.00 0.00 74 1013.4
20230201104523 22 230 9.0 12.0 0.00 0.00 0.00 75 1013.4
20230201104002 22 229 10.0 14.0 0.00 0.00 0.00 74 1013.2
20230201103502 22 229 10.0 14.0 0.00 0.00 0.00 74 1013.3
20230201103024 22 229 9.0 14.0 0.00 0.00 0.00 74 1013.3
20230201102502 22 230 8.0 12.0 0.00 0.00 0.00 74 1013.4
20230201102002 22 230 9.0 12.0 0.00 0.00 0.00 75 1013.2
20230201101502 21 230 9.0 14.0 0.00 0.00 0.00 75 1013.1
20230201101023 21 228 9.0 14.0 0.00 0.00 0.00 75 1013.0
20230201100523 21 225 9.0 13.0 0.00 0.00 0.00 76 1013.3
20230201100002 20 225 9.0 14.0 0.00 0.00 0.00 76 1013.2
20230201095502 20 227 9.0 14.0 0.00 0.00 0.00 76 1013.3
20230201095002 20 229 8.0 14.0 0.00 0.00 0.00 76 1013.3
20230201094502 20 234 6.0 12.0 0.00 0.00 0.00 77 1013.4
20230201094002 20 243 6.0 10.0 0.00 0.00 0.00 76 1013.4
20230201093502 20 245 6.0 10.0 0.00 0.00 0.00 75 1013.3
20230201093024 20 244 6.0 10.0 0.00 0.00 0.00 75 1013.2
20230201092523 20 241 8.0 12.0 0.00 0.00 0.00 75 1013.3
20230201092023 20 238 9.0 13.0 0.00 0.00 0.00 75 1013.2
20230201091523 20 237 10.0 13.0 0.00 0.00 0.00 74 1013.3
20230201091002 20 239 11.0 15.0 0.00 0.00 0.00 74 1013.4
20230201090502 20 239 11.0 15.0 0.00 0.00 0.00 73 1013.4
20230201090002 20 239 10.0 15.0 0.00 0.00 0.00 74 1013.4
20230201085502 20 241 8.0 14.0 0.00 0.00 0.00 74 1013.3
20230201085003 20 244 7.0 12.0 0.00 0.00 0.00 75 1013.3
20230201084503 19 244 8.0 11.0 0.00 0.00 0.00 75 1013.2
20230201084002 19 241 8.0 11.0 0.00 0.00 0.00 75 1013.2
20230201083503 19 235 8.0 11.0 0.00 0.00 0.00 75 1013.4
20230201083003 19 229 9.0 13.0 0.00 0.00 0.00 75 1013.2
20230201082523 19 226 9.0 13.0 0.00 0.00 0.00 74 1013.3
20230201082002 20 227 10.0 14.0 0.00 0.00 0.00 74 1013.2
20230201081502 20 232 10.0 14.0 0.00 0.00 0.00 74 1013.2
20230201081002 19 236 8.0 13.0 0.00 0.00 0.00 74 1013.1
20230201080502 19 241 5.0 12.0 0.00 0.00 0.00 74 1013.2
20230201080002 19 249 2.0 10.0 0.00 0.00 0.00 75 1013.3
20230201075502 19 301 1.0 4.0 0.00 0.00 0.00 74 1013.4
20230201075003 19 281 4.0 10.0 0.00 0.00 0.00 74 1013.4
20230201074502 19 245 9.0 14.0 0.00 0.00 0.00 74 1013.5
20230201074003 19 237 11.0 15.0 0.00 0.00 0.00 73 1013.5
20230201073503 19 233 11.0 15.0 0.00 0.00 0.00 73 1013.4
20230201073004 19 233 13.0 17.0 0.00 0.00 0.00 73 1013.5
20230201072502 19 234 14.0 17.0 0.00 0.00 0.00 72 1013.4
20230201072003 19 233 13.0 17.0 0.00 0.00 0.00 72 1013.4
20230201071503 19 230 13.0 18.0 0.00 0.00 0.00 73 1013.5
20230201071003 18 227 13.0 18.0 0.00 0.00 0.00 73 1013.4
20230201070503 18 226 13.0 18.0 0.00 0.00 0.00 73 1013.5
20230201070003 18 227 12.0 16.0 0.00 0.00 0.00 73 1013.5
20230201065502 18 226 12.0 16.0 0.00 0.00 0.00 73 1013.5
20230201065002 18 226 11.0 16.0 0.00 0.00 0.00 74 1013.6
20230201064502 18 224 11.0 16.0 0.00 0.00 0.00 74 1013.6
20230201064024 18 221 11.0 15.0 0.00 0.00 0.00 74 1013.7
20230201063502 18 219 9.0 14.0 0.00 0.00 0.00 75 1013.6
20230201063002 17 218 9.0 14.0 0.00 0.00 0.00 75 1013.6
20230201062502 17 217 8.0 12.0 0.00 0.00 0.00 75 1013.6
20230201062003 17 218 9.0 12.0 0.00 0.00 0.00 75 1013.5
20230201061503 17 220 9.0 14.0 0.00 0.00 0.00 75 1013.6
20230201061003 17 223 9.0 14.0 0.00 0.00 0.00 74 1013.5
20230201060524 17 225 10.0 15.0 0.00 0.00 0.00 75 1013.5
20230201060003 16 226 10.0 15.0 0.00 0.00 0.00 74 1013.6
20230201055502 16 225 10.0 14.0 0.00 0.00 0.00 75 1013.6
20230201055003 16 226 10.0 15.0 0.00 0.00 0.00 75 1013.6
20230201054502 15 228 10.0 15.0 0.00 0.00 0.00 75 1013.6
20230201054003 16 230 11.0 15.0 0.00 0.00 0.00 74 1013.6
20230201053502 16 230 11.0 15.0 0.00 0.00 0.00 74 1013.8
20230201053003 16 228 11.0 15.0 0.00 0.00 0.00 74 1013.6
20230201052502 16 228 11.0 15.0 0.00 0.00 0.00 74 1013.7
20230201052002 16 229 12.0 16.0 0.00 0.00 0.00 73 1013.6
20230201051502 16 229 11.0 16.0 0.00 0.00 0.00 73 1013.7
20230201051002 16 228 11.0 16.0 0.00 0.00 0.00 73 1013.8
20230201050502 16 228 12.0 18.0 0.00 0.00 0.00 73 1013.8
20230201050002 16 227 11.0 18.0 0.00 0.00 0.00 73 1013.6
20230201045503 16 226 11.0 15.0 0.00 0.00 0.00 73 1013.7
20230201045003 16 224 11.0 16.0 0.00 0.00 0.00 74 1013.7
20230201044524 16 222 11.0 16.0 0.00 0.00 0.00 74 1013.7
20230201044003 16 220 11.0 15.0 0.00 0.00 0.00 74 1013.7
20230201043502 16 220 11.0 14.0 0.00 0.00 0.00 74 1013.7
20230201043003 15 219 11.0 14.0 0.00 0.00 0.00 75 1013.8
20230201042523 15 219 10.0 14.0 0.00 0.00 0.00 75 1013.8
20230201042024 15 218 10.0 14.0 0.00 0.00 0.00 76 1013.9
20230201041524 14 218 9.0 13.0 0.00 0.00 0.00 76 1013.8
20230201041003 14 218 9.0 12.0 0.00 0.00 0.00 76 1013.9
20230201040502 14 218 9.0 13.0 0.00 0.00 0.00 76 1013.9
20230201040002 14 218 9.0 14.0 0.00 0.00 0.00 76 1013.8
20230201035523 14 218 9.0 14.0 0.00 0.00 0.00 75 1013.8
20230201035024 15 217 9.0 13.0 0.00 0.00 0.00 75 1013.8
20230201034502 15 217 9.0 12.0 0.00 0.00 0.00 76 1013.8
20230201034024 15 219 8.0 11.0 0.00 0.00 0.00 75 1013.8
20230201033523 15 221 8.0 12.0 0.00 0.00 0.00 75 1013.8
20230201033024 15 221 9.0 12.0 0.00 0.00 0.00 75 1013.8
20230201032524 16 219 9.0 13.0 0.00 0.00 0.00 75 1013.8
20230201032003 16 217 9.0 13.0 0.00 0.00 0.00 75 1013.9
20230201031524 15 216 9.0 12.0 0.00 0.00 0.00 76 1013.8
20230201031024 15 217 9.0 12.0 0.00 0.00 0.00 76 1013.7
20230201030503 15 221 10.0 12.0 0.00 0.00 0.00 75 1013.7
20230201030003 15 224 10.0 13.0 0.00 0.00 0.00 76 1013.7
20230201025503 15 227 9.0 13.0 0.00 0.00 0.00 76 1013.8
20230201025004 15 229 10.0 13.0 0.00 0.00 0.00 76 1013.9
20230201024503 15 230 10.0 13.0 0.00 0.00 0.00 76 1013.9
20230201024003 15 230 9.0 14.0 0.00 0.00 0.00 76 1013.9
20230201023503 15 229 9.0 14.0 0.00 0.00 0.00 76 1013.8
20230201023024 15 227 9.0 12.0 0.00 0.00 0.00 75 1013.9
20230201022503 15 225 9.0 12.0 0.00 0.00 0.00 75 1013.7
20230201022003 15 225 9.0 12.0 0.00 0.00 0.00 75 1013.9
20230201021502 15 224 9.0 12.0 0.00 0.00 0.00 75 1013.9
20230201021003 15 223 9.0 14.0 0.00 0.00 0.00 74 1013.8
20230201020503 15 223 9.0 14.0 0.00 0.00 0.00 75 1013.8
20230201020024 15 222 9.0 13.0 0.00 0.00 0.00 75 1013.9
20230201015523 15 221 9.0 13.0 0.00 0.00 0.00 75 1013.9
20230201015003 15 223 8.0 13.0 0.00 0.00 0.00 75 1013.9
20230201014503 15 224 8.0 11.0 0.00 0.00 0.00 74 1013.9
20230201014002 15 222 8.0 11.0 0.00 0.00 0.00 74 1013.9
20230201013503 15 222 8.0 11.0 0.00 0.00 0.00 74 1014.0
20230201013002 16 224 9.0 13.0 0.00 0.00 0.00 73 1014.0
20230201012502 16 226 9.0 13.0 0.00 0.00 0.00 73 1014.0
20230201012003 16 225 9.0 12.0 0.00 0.00 0.00 73 1013.9
20230201011503 17 227 10.0 14.0 0.00 0.00 0.00 71 1013.9
20230201011003 17 229 11.0 14.0 0.00 0.00 0.00 70 1013.9
20230201010503 18 231 10.0 14.0 0.00 0.00 0.00 70 1014.0
20230201010006 18 231 10.0 13.0 0.00 0.00 0.00 70 1013.9
20230201005503 18 230 11.0 14.0 0.00 0.00 0.00 70 1014.0
20230201005004 18 229 11.0 14.0 0.00 0.00 0.00 70 1014.0
20230201004503 18 229 11.0 14.0 0.00 0.00 0.00 69 1013.9
20230201004004 18 229 11.0 14.0 0.00 0.00 0.00 69 1014.0
20230201003503 18 228 10.0 14.0 0.00 0.00 0.00 69 1014.1
20230201003003 18 227 9.0 13.0 0.00 0.00 0.00 70 1014.0
20230201002524 18 227 9.0 12.0 0.00 0.00 0.00 70 1014.1
20230201002004 18 227 9.0 12.0 0.00 0.00 0.00 71 1014.0
20230201001524 18 226 8.0 12.0 0.00 0.00 0.00 71 1014.0
20230201001004 17 223 8.0 11.0 0.00 0.00 0.00 71 1014.0
20230201000503 18 222 7.0 11.0 0.00 0.00 0.00 71 1014.1
20230201000007 18 222 7.0 10.0 0.00 0.00 0.00 70 1013.9
20230131235503 18 222 7.0 10.0 0.00 0.00 0.00 70 1013.9
20230131235004 18 222 7.0 10.0 0.00 0.00 0.00 69 1014.0
20230131234503 19 223 7.0 10.0 0.00 0.00 0.00 68 1014.0
20230131234005 20 224 8.0 10.0 0.00 0.00 0.00 68 1013.8
20230131233523 20 226 8.0 12.0 0.00 0.00 0.00 67 1013.9
20230131232524 21 230 9.0 14.0 0.00 0.00 0.00 64 1013.8
20230131232004 21 228 7.0 14.0 0.00 0.00 0.00 64 1013.9
20230131231502 22 225 5.0 10.0 0.00 0.00 0.00 64 1013.8
20230131231004 22 229 5.0 8.0 0.00 0.00 0.00 64 1013.7
20230131230503 22 235 6.0 11.0 0.00 0.00 0.00 63 1013.7
20230131230006 22 239 8.0 12.0 0.00 0.00 0.00 63 1013.8
20230131225502 22 240 8.0 12.0 0.00 0.00 0.00 61 1013.8
20230131225004 22 239 8.0 12.0 0.00 0.00 0.00 61 1013.7
20230131224503 22 239 9.0 14.0 0.00 0.00 0.00 61 1013.7
20230131224026 22 238 10.0 14.0 0.00 0.00 0.00 60 1013.6
20230131223503 22 236 10.0 13.0 0.00 0.00 0.00 60 1013.6
20230131223004 23 235 10.0 13.0 0.00 0.00 0.00 61 1013.6
20230131222503 23 235 10.0 14.0 0.00 0.00 0.00 63 1013.6
20230131222004 23 238 11.0 14.0 0.00 0.00 0.00 62 1013.6
20230131221503 23 241 11.0 14.0 0.00 0.00 0.00 62 1013.6
20230131221003 23 242 10.0 14.0 0.00 0.00 0.00 61 1013.5
20230131220503 23 245 7.0 14.0 0.00 0.00 0.00 59 1013.4
20230131220003 24 250 6.0 14.0 0.00 0.00 0.00 58 1013.3
20230131215503 24 252 7.0 13.0 0.00 0.00 0.00 59 1013.3
20230131215025 23 248 8.0 13.0 0.00 0.00 0.00 60 1013.3
20230131214503 23 244 10.0 14.0 0.00 0.00 0.00 61 1013.2
20230131214005 23 243 11.0 14.0 0.00 0.00 0.00 60 1013.2
20230131213503 22 242 11.0 15.0 0.00 0.00 0.00 60 1013.2
20230131213025 22 243 10.0 15.0 0.00 0.00 0.00 59 1013.1
20230131212524 23 245 10.0 14.0 0.00 0.00 0.00 60 1013.1
20230131212004 23 243 11.0 17.0 0.00 0.00 0.00 60 1013.1
20230131211502 22 241 11.0 17.0 0.00 0.00 0.00 60 1013.1
20230131211003 23 241 10.0 16.0 0.00 0.00 0.00 59 1013.1
20230131210503 23 242 11.0 16.0 0.00 0.00 0.00 59 1013.1
20230131210004 23 242 11.0 15.0 0.00 0.00 0.00 61 1013.1
20230131205503 22 242 11.0 15.0 0.00 0.00 0.00 60 1013.2
20230131205004 22 239 12.0 17.0 0.00 0.00 0.00 61 1013.2
20230131204503 22 239 12.0 17.0 0.00 0.00 0.00 63 1013.4
20230131204024 22 240 11.0 17.0 0.00 0.00 0.00 62 1013.3
20230131203503 22 241 12.0 15.0 0.00 0.00 0.00 61 1013.4
20230131203003 22 238 12.0 16.0 0.00 0.00 0.00 62 1013.4
20230131202503 21 235 12.0 17.0 0.00 0.00 0.00 62 1013.4
20230131202004 21 233 11.0 17.0 0.00 0.00 0.00 62 1013.5
20230131201503 22 230 10.0 15.0 0.00 0.00 0.00 63 1013.5
20230131201004 22 229 11.0 15.0 0.00 0.00 0.00 62 1013.6
20230131200503 21 231 12.0 15.0 0.00 0.00 0.00 62 1013.7
20230131200005 21 230 13.0 17.0 0.00 0.00 0.00 62 1013.7
20230131195503 21 232 13.0 17.0 0.00 0.00 0.00 63 1013.6
20230131195024 20 231 13.0 17.0 0.00 0.00 0.00 61 1013.8
20230131194503 20 233 14.0 18.0 0.00 0.00 0.00 63 1013.8
20230131194025 20 231 14.0 18.0 0.00 0.00 0.00 63 1013.9
20230131193503 20 226 13.0 18.0 0.00 0.00 0.00 62 1013.9
20230131193004 20 226 14.0 17.0 0.00 0.00 0.00 61 1014.0
20230131192503 20 228 14.0 20.0 0.00 0.00 0.00 62 1014.1
20230131192004 20 230 15.0 20.0 0.00 0.00 0.00 61 1014.2
20230131191503 19 234 16.0 21.0 0.00 0.00 0.00 62 1014.2
20230131191004 19 235 15.0 21.0 0.00 0.00 0.00 62 1014.2
20230131190503 19 239 15.0 20.0 0.00 0.00 0.00 63 1014.3
20230131190005 19 242 15.0 20.0 0.00 0.00 0.00 64 1014.4
20230131185503 18 243 14.0 20.0 0.00 0.00 0.00 61 1014.4
20230131185004 18 244 12.0 20.0 0.00 0.00 0.00 61 1014.7
20230131184503 18 248 11.0 18.0 0.00 0.00 0.00 61 1014.6
20230131184004 18 248 12.0 20.0 0.00 0.00 0.00 60 1014.7
20230131183503 18 246 14.0 23.0 0.00 0.00 0.00 62 1014.9
20230131183004 18 244 14.0 23.0 0.00 0.00 0.00 62 1014.9
20230131182524 17 243 15.0 23.0 0.00 0.00 0.00 62 1014.9
20230131182004 16 242 17.0 23.0 0.00 0.00 0.00 65 1014.9
20230131181503 15 241 18.0 23.0 0.00 0.00 0.00 64 1015.0
20230131181003 15 241 17.0 24.0 0.00 0.00 0.00 64 1015.0
20230131180503 14 240 18.0 24.0 0.00 0.00 0.00 64 1015.1
20230131180025 14 240 18.0 24.0 0.00 0.00 0.00 64 1015.3
20230131175503 14 241 18.0 23.0 0.00 0.00 0.00 63 1015.3
20230131175003 14 241 17.0 23.0 0.00 0.00 0.00 63 1015.3
20230131174524 13 242 17.0 23.0 0.00 0.00 0.00 61 1015.3
20230131174004 13 241 16.0 22.0 0.00 0.00 0.00 61 1015.3
20230131173503 13 239 16.0 21.0 0.00 0.00 0.00 62 1015.4
20230131173004 13 238 15.0 21.0 0.00 0.00 0.00 64 1015.3
20230131172524 12 237 16.0 22.0 0.00 0.00 0.00 64 1015.3
20230131172004 12 236 16.0 22.0 0.00 0.00 0.00 63 1015.3
20230131171503 12 236 16.0 21.0 0.00 0.00 0.00 63 1015.3
20230131171004 11 238 16.0 22.0 0.00 0.00 0.00 63 1015.5
20230131170503 11 241 14.0 22.0 0.00 0.00 0.00 63 1015.6
20230131170004 11 242 12.0 17.0 0.00 0.00 0.00 63 1015.7
20230131165503 11 241 12.0 17.0 0.00 0.00 0.00 64 1015.7
20230131165004 10 239 13.0 18.0 0.00 0.00 0.00 63 1015.7
20230131164503 10 237 13.0 18.0 0.00 0.00 0.00 64 1015.7
20230131164003 9 237 11.0 15.0 0.00 0.00 0.00 65 1015.8
20230131163503 9 238 11.0 15.0 0.00 0.00 0.00 64 1015.8
20230131163004 9 238 11.0 15.0 0.00 0.00 0.00 64 1015.7
20230131162503 8 238 11.0 15.0 0.00 0.00 0.00 64 1015.7
20230131162004 8 236 10.0 14.0 0.00 0.00 0.00 64 1015.9
20230131161503 8 236 10.0 15.0 0.00 0.00 0.00 65 1015.8
20230131161004 7 235 11.0 15.0 0.00 0.00 0.00 65 1015.8
20230131160503 7 234 12.0 16.0 0.00 0.00 0.00 65 1015.8
20230131160004 7 232 12.0 16.0 0.00 0.00 0.00 66 1015.7
20230131155503 7 231 12.0 16.0 0.00 0.00 0.00 65 1015.7
20230131155003 7 229 11.0 16.0 0.00 0.00 0.00 66 1015.7
20230131154503 6 228 11.0 16.0 0.00 0.00 0.00 66 1015.6
20230131154024 6 228 11.0 16.0 0.00 0.00 0.00 66 1015.6
20230131153503 6 227 12.0 18.0 0.00 0.00 0.00 67 1015.6
20230131153004 5 227 11.0 18.0 0.00 0.00 0.00 68 1015.6
20230131152503 5 228 10.0 15.0 0.00 0.00 0.00 68 1015.4
20230131152004 4 229 9.0 14.0 0.00 0.00 0.00 68 1015.4
20230131151503 4 228 9.0 14.0 0.00 0.00 0.00 69 1015.5
20230131151004 4 225 10.0 14.0 0.00 0.00 0.00 69 1015.4
20230131150524 4 224 11.0 14.0 0.00 0.00 0.00 69 1015.5
20230131150024 4 223 11.0 14.0 0.00 0.00 0.00 69 1015.4
20230131145503 4 222 11.0 16.0 0.00 0.00 0.00 68 1015.3
20230131145009 3 217 11.0 16.0 0.00 0.00 0.00 69 1015.3
20230131144503 3 216 10.0 13.0 0.00 0.00 0.00 69 1015.3
20230131144005 3 220 10.0 14.0 0.00 0.00 0.00 70 1015.3
20230131143524 3 223 10.0 16.0 0.00 0.00 0.00 70 1015.3
20230131143004 3 225 11.0 16.0 0.00 0.00 0.00 70 1015.3
20230131142524 2 225 11.0 16.0 0.00 0.00 0.00 71 1015.3
20230131142004 2 224 10.0 16.0 0.00 0.00 0.00 71 1015.3
20230131141524 2 221 9.0 14.0 0.00 0.00 0.00 72 1015.3
20230131141025 1 219 9.0 12.0 0.00 0.00 0.00 73 1015.3
20230131140503 1 220 9.0 12.0 0.00 0.00 0.00 73 1015.4
20230131140005 1 220 10.0 13.0 0.00 0.00 0.00 72 1015.4
20230131135524 1 220 11.0 14.0 0.00 0.00 0.00 72 1015.4
20230131135005 2 219 12.0 16.0 0.00 0.00 0.00 72 1015.4
20230131134503 2 221 10.0 16.0 0.00 0.00 0.00 72 1015.3
20230131134004 2 224 9.0 14.0 0.00 0.00 0.00 72 1015.3
20230131133503 2 225 9.0 13.0 0.00 0.00 0.00 72 1015.4
20230131133026 2 224 10.0 17.0 0.00 0.00 0.00 72 1015.4
20230131132503 2 225 10.0 17.0 0.00 0.00 0.00 72 1015.4
20230131132004 2 227 10.0 14.0 0.00 0.00 0.00 71 1015.4
20230131131503 2 229 11.0 16.0 0.00 0.00 0.00 71 1015.4
20230131131003 2 231 12.0 16.0 0.00 0.00 0.00 71 1015.4
20230131130524 3 232 13.0 16.0 0.00 0.00 0.00 70 1015.5
20230131130003 2 235 12.0 17.0 0.00 0.00 0.00 71 1015.6
20230131125503 2 235 11.0 17.0 0.00 0.00 0.00 72 1015.7
20230131124959 2 235 10.0 15.0 0.00 0.00 0.00 72 1015.7
20230131124456 2 236 10.0 14.0 0.00 0.00 0.00 72 1015.9
20230131123957 2 234 11.0 14.0 0.00 0.00 0.00 71 1015.7